createdAt,value
2019-04-29T00:56:22.675Z,7.69
2019-04-29T00:58:52.804Z,7.66
2019-04-29T01:01:25.284Z,7.66
2019-04-29T01:03:55.400Z,7.62
2019-04-29T01:06:25.371Z,7.60
2019-04-29T01:08:56.142Z,7.57
2019-04-29T01:11:26.324Z,7.62
2019-04-29T01:13:56.381Z,7.62
2019-04-29T01:16:28.443Z,7.65
2019-04-29T01:18:59.097Z,7.62
2019-04-29T01:21:29.076Z,7.65
2019-04-29T01:23:59.089Z,7.73
2019-04-29T01:26:44.961Z,7.74
2019-04-29T01:29:16.344Z,7.74
2019-04-29T01:31:46.220Z,7.70
2019-04-29T01:34:21.453Z,7.71
2019-04-29T01:36:54.677Z,7.74
2019-04-29T01:39:30.198Z,7.76
2019-04-29T01:42:19.134Z,7.80
2019-04-29T01:44:49.175Z,7.66
2019-04-29T01:47:19.221Z,7.69
2019-04-29T01:49:49.252Z,7.71
2019-04-29T01:52:19.375Z,7.64
2019-04-29T01:54:49.331Z,7.58
2019-04-29T01:57:19.289Z,7.65
2019-04-29T01:59:49.330Z,7.68
2019-04-29T02:02:19.387Z,7.70
2019-04-29T02:04:49.784Z,7.71
2019-04-29T02:07:19.905Z,7.61
2019-04-29T02:10:14.846Z,7.59
2019-04-29T02:12:46.841Z,7.63
2019-04-29T02:15:18.828Z,7.61
2019-04-29T02:17:50.458Z,7.64
2019-04-29T02:20:25.124Z,7.63
2019-04-29T02:23:15.131Z,7.55
2019-04-29T02:28:14.954Z,7.54
2019-04-29T02:30:47.900Z,7.41
2019-04-29T02:33:17.974Z,7.33
2019-04-29T02:35:48.141Z,7.37
2019-04-29T02:38:55.480Z,7.37
2019-04-29T02:41:40.846Z,7.34
2019-04-29T02:44:12.119Z,7.35
2019-04-29T02:46:42.138Z,7.32
2019-04-29T02:49:12.406Z,7.36
2019-04-29T02:51:45.747Z,7.37
2019-04-29T02:54:16.814Z,7.33
2019-04-29T02:56:50.919Z,7.27
2019-04-29T02:59:26.763Z,7.23
2019-04-29T03:02:04.514Z,7.16
2019-04-29T03:04:39.968Z,7.18
2019-04-29T03:07:10.188Z,7.19
2019-04-29T03:09:45.659Z,7.15
2019-04-29T03:12:16.295Z,7.08
2019-04-29T03:14:46.412Z,6.99
2019-04-29T03:17:20.943Z,7.01
2019-04-29T03:20:15.608Z,6.91
2019-04-29T03:22:46.240Z,6.18
2019-04-29T03:25:16.325Z,6.80
2019-04-29T03:27:46.791Z,6.81
2019-04-29T03:30:17.307Z,6.74
2019-04-29T03:32:47.619Z,6.79
2019-04-29T03:35:18.167Z,6.55
2019-04-29T03:37:48.352Z,6.10
2019-04-29T03:40:18.771Z,6.76
2019-04-29T03:42:48.693Z,6.70
2019-04-29T03:45:18.849Z,6.68
2019-04-29T03:47:49.052Z,6.70
2019-04-29T03:50:20.036Z,6.66
2019-04-29T03:52:50.015Z,6.68
2019-04-29T03:55:37.689Z,6.71
2019-04-29T03:57:51.714Z,6.70
2019-04-29T04:00:21.898Z,6.70
2019-04-29T04:03:03.948Z,6.70
2019-04-29T04:05:43.545Z,6.72
2019-04-29T04:08:19.974Z,6.64
2019-04-29T04:10:50.130Z,6.63
2019-04-29T04:13:21.194Z,6.52
2019-04-29T04:15:51.350Z,6.59
2019-04-29T04:18:26.845Z,6.61
2019-04-29T04:20:57.240Z,6.63
2019-04-29T04:23:27.216Z,6.61
2019-04-29T04:25:57.436Z,6.64
2019-04-29T04:28:27.474Z,6.69
2019-04-29T04:30:57.667Z,6.66
2019-04-29T04:33:27.970Z,6.64
2019-04-29T04:35:58.137Z,6.61
2019-04-29T04:38:33.029Z,6.69
2019-04-29T04:41:06.520Z,6.78
2019-04-29T04:43:36.676Z,6.72
2019-04-29T04:46:04.745Z,6.83
2019-04-29T04:48:35.093Z,6.96
2019-04-29T04:51:05.035Z,6.96
2019-04-29T04:53:35.199Z,7.05
2019-04-29T04:56:06.346Z,7.18
2019-04-29T04:58:36.331Z,7.23
2019-04-29T05:01:06.774Z,7.30
2019-04-29T05:03:36.781Z,7.44
2019-04-29T05:06:06.981Z,7.55
2019-04-29T05:08:37.161Z,7.62
2019-04-29T05:11:07.274Z,7.73
2019-04-29T05:13:38.429Z,7.87
2019-04-29T05:16:08.764Z,7.36
2019-04-29T05:18:38.679Z,8.11
2019-04-29T05:21:09.024Z,8.33
2019-04-29T05:23:41.524Z,8.33
2019-04-29T05:26:10.634Z,8.38
2019-04-29T05:28:40.754Z,7.96
2019-04-29T05:31:10.783Z,7.96
2019-04-29T05:33:41.758Z,8.70
2019-04-29T05:36:26.616Z,8.82
2019-04-29T05:39:07.033Z,8.99
2019-04-29T05:41:36.984Z,8.99
2019-04-29T05:44:15.333Z,9.04
2019-04-29T05:46:48.884Z,9.04
2019-04-29T05:49:22.981Z,9.19
2019-04-29T05:52:04.104Z,9.19
2019-04-29T05:54:34.799Z,9.20
2019-04-29T05:57:04.928Z,9.34
2019-04-29T05:59:35.324Z,9.49
2019-04-29T06:02:05.481Z,9.33
2019-04-29T06:04:35.684Z,9.33
2019-04-29T06:07:05.953Z,9.89
2019-04-29T06:09:36.093Z,10.04
2019-04-29T06:12:10.524Z,10.18
2019-04-29T06:14:40.551Z,10.35
2019-04-29T06:17:10.634Z,10.45
2019-04-29T06:19:41.058Z,10.58
2019-04-29T06:22:11.331Z,10.68
2019-04-29T06:24:42.252Z,10.80
2019-04-29T06:27:12.336Z,10.84
2019-04-29T06:29:42.447Z,10.84
2019-04-29T06:32:12.420Z,10.90
2019-04-29T06:34:42.451Z,11.05
2019-04-29T06:37:12.651Z,11.16
2019-04-29T06:39:42.798Z,11.36
2019-04-29T06:42:15.536Z,11.49
2019-04-29T06:44:48.958Z,11.67
2019-04-29T06:47:17.250Z,11.39
2019-04-29T06:49:47.338Z,12.12
2019-04-29T06:52:19.422Z,12.38
2019-04-29T06:54:49.583Z,12.48
2019-04-29T06:57:19.815Z,12.54
2019-04-29T06:59:49.869Z,12.44
2019-04-29T07:02:20.279Z,12.30
2019-04-29T07:04:50.573Z,12.47
2019-04-29T07:07:20.669Z,12.44
2019-04-29T07:09:51.094Z,12.79
2019-04-29T07:12:21.232Z,12.66
2019-04-29T07:14:51.212Z,12.76
2019-04-29T07:17:24.661Z,12.84
2019-04-29T07:19:57.491Z,13.09
2019-04-29T07:22:27.608Z,13.15
2019-04-29T07:24:58.360Z,13.52
2019-04-29T07:27:28.436Z,13.38
2019-04-29T07:32:26.404Z,13.59
2019-04-29T07:34:56.646Z,13.93
2019-04-29T07:37:24.793Z,13.82
2019-04-29T07:39:52.710Z,13.67
2019-04-29T07:42:25.046Z,13.68
2019-04-29T07:45:43.319Z,13.61
2019-04-29T07:48:06.450Z,13.28
2019-04-29T07:50:34.820Z,12.95
2019-04-29T07:53:05.351Z,13.00
2019-04-29T07:55:35.483Z,13.27
2019-04-29T07:58:05.958Z,13.46
2019-04-29T08:00:37.452Z,13.39
2019-04-29T08:03:09.728Z,13.52
2019-04-29T08:05:40.711Z,13.59
2019-04-29T08:08:16.725Z,13.54
2019-04-29T08:10:55.899Z,13.56
2019-04-29T08:13:23.700Z,13.57
2019-04-29T08:15:55.053Z,13.66
2019-04-29T08:18:25.318Z,13.93
2019-04-29T08:20:56.320Z,14.14
2019-04-29T08:23:28.024Z,14.10
2019-04-29T08:26:02.628Z,13.91
2019-04-29T08:28:33.627Z,13.82
2019-04-29T08:31:04.356Z,13.81
2019-04-29T08:33:34.416Z,13.57
2019-04-29T08:36:04.768Z,13.48
2019-04-29T08:38:34.962Z,13.30
2019-04-29T08:41:05.822Z,13.21
2019-04-29T08:43:56.184Z,13.18
2019-04-29T08:46:27.751Z,13.16
2019-04-29T08:49:01.232Z,13.32
2019-04-29T08:51:31.526Z,13.22
2019-04-29T08:54:04.026Z,13.43
2019-04-29T08:56:35.540Z,13.35
2019-04-29T08:59:07.713Z,13.61
2019-04-29T09:01:38.288Z,13.73
2019-04-29T09:04:11.890Z,13.99
2019-04-29T09:06:42.114Z,13.92
2019-04-29T09:09:28.727Z,14.00
2019-04-29T09:13:54.559Z,13.90
2019-04-29T09:14:19.068Z,13.83
2019-04-29T09:16:49.366Z,13.81
2019-04-29T09:19:21.029Z,13.55
2019-04-29T09:21:55.022Z,13.40
2019-04-29T09:24:26.432Z,13.31
2019-04-29T09:27:05.082Z,13.34
2019-04-29T09:29:35.092Z,13.43
2019-04-29T09:32:06.738Z,13.24
2019-04-29T09:34:37.490Z,13.11
2019-04-29T09:37:07.871Z,13.08
2019-04-29T09:39:43.814Z,12.94
2019-04-29T09:42:31.335Z,12.70
2019-04-29T09:45:24.585Z,12.57
2019-04-29T09:47:55.629Z,12.51
2019-04-29T09:50:28.578Z,12.26
2019-04-29T09:52:59.367Z,12.09
2019-04-29T09:55:29.916Z,11.86
2019-04-29T09:58:00.070Z,11.94
2019-04-29T10:00:52.071Z,11.99
2019-04-29T10:03:35.467Z,11.88
2019-04-29T10:06:14.789Z,11.71
2019-04-29T10:08:46.464Z,11.77
2019-04-29T10:11:17.956Z,12.01
2019-04-29T10:13:48.253Z,12.05
2019-04-29T10:16:31.776Z,11.94
2019-04-29T10:19:05.502Z,12.07
2019-04-29T10:21:38.328Z,12.06
2019-04-29T10:24:09.409Z,12.16
2019-04-29T10:26:39.365Z,12.27
2019-04-29T10:29:18.589Z,12.13
2019-04-29T10:31:47.873Z,12.03
2019-04-29T10:34:18.838Z,11.78
2019-04-29T10:36:52.233Z,11.65
2019-04-29T10:39:52.358Z,11.47
2019-04-29T10:42:30.214Z,11.55
2019-04-29T10:45:07.891Z,11.32
2019-04-29T10:47:58.314Z,11.23
2019-04-29T10:50:32.838Z,10.44
2019-04-29T10:53:03.822Z,10.85
2019-04-29T10:55:33.930Z,10.76
2019-04-29T10:58:04.771Z,10.67
2019-04-29T11:01:18.561Z,10.60
2019-04-29T11:03:50.618Z,10.50
2019-04-29T11:06:31.453Z,10.42
2019-04-29T11:09:09.589Z,10.46
2019-04-29T11:11:40.254Z,9.83
2019-04-29T11:14:10.890Z,10.39
2019-04-29T11:16:46.405Z,10.59
2019-04-29T11:19:13.052Z,10.54
2019-04-29T11:21:43.846Z,10.72
2019-04-29T11:24:22.179Z,10.83
2019-04-29T11:27:11.437Z,10.96
2019-04-29T11:29:35.810Z,10.80
2019-04-29T11:32:11.151Z,10.77
2019-04-29T11:35:00.987Z,10.51
2019-04-29T11:37:33.085Z,10.37
2019-04-29T11:40:06.168Z,10.38
2019-04-29T11:42:41.700Z,10.29
2019-04-29T11:45:13.561Z,10.35
2019-04-29T11:47:44.598Z,10.36
2019-04-29T11:50:27.030Z,10.22
2019-04-29T11:52:58.003Z,10.19
2019-04-29T11:55:29.172Z,10.11
2019-04-29T11:58:05.125Z,10.11
2019-04-29T12:01:03.935Z,10.05
2019-04-29T12:03:38.185Z,10.04
2019-04-29T12:06:10.904Z,9.91
2019-04-29T12:08:41.784Z,9.96
2019-04-29T12:11:16.530Z,9.50
2019-04-29T12:14:12.997Z,9.53
2019-04-29T12:16:47.784Z,10.16
2019-04-29T12:19:22.744Z,10.20
2019-04-29T12:21:55.980Z,10.20
2019-04-29T12:24:31.970Z,10.25
2019-04-29T12:27:04.365Z,10.41
2019-04-29T12:29:37.725Z,10.41
2019-04-29T12:32:27.365Z,10.29
2019-04-29T12:35:21.512Z,10.19
2019-04-29T12:38:11.213Z,9.95
2019-04-29T12:40:57.903Z,9.86
2019-04-29T12:43:38.141Z,9.84
2019-04-29T12:46:16.416Z,9.87
2019-04-29T12:48:47.602Z,9.39
2019-04-29T12:51:18.295Z,9.87
2019-04-29T12:53:50.407Z,9.88
2019-04-29T12:56:47.946Z,9.76
2019-04-29T12:59:20.870Z,9.74
2019-04-29T13:02:24.163Z,9.75
2019-04-29T13:05:15.423Z,9.76
2019-04-29T13:08:06.533Z,9.77
2019-04-29T13:10:57.751Z,9.73
2019-04-29T13:13:29.104Z,9.76
2019-04-29T13:16:21.977Z,9.67
2019-04-29T13:19:29.457Z,9.79
2019-04-29T13:21:57.583Z,9.84
2019-04-29T13:24:28.407Z,9.96
2019-04-29T13:27:15.610Z,10.01
2019-04-29T13:29:40.424Z,9.33
2019-04-29T13:32:11.844Z,10.01
2019-04-29T13:34:45.674Z,10.02
2019-04-29T13:37:18.979Z,10.11
2019-04-29T13:39:56.095Z,10.10
2019-04-29T13:42:31.280Z,10.22
2019-04-29T13:45:12.947Z,10.07
2019-04-29T13:48:01.844Z,10.04
2019-04-29T13:50:45.641Z,9.96
2019-04-29T13:53:18.615Z,9.40
2019-04-29T13:55:50.270Z,10.14
2019-04-29T13:58:29.273Z,10.10
2019-04-29T14:01:31.253Z,9.94
2019-04-29T14:04:29.222Z,10.01
2019-04-29T14:06:59.499Z,10.07
2019-04-29T14:09:35.144Z,10.04
2019-04-29T14:12:42.373Z,10.00
2019-04-29T14:14:37.541Z,10.05
2019-04-29T14:17:25.330Z,10.08
2019-04-29T14:19:42.611Z,10.15
2019-04-29T14:22:21.987Z,10.12
2019-04-29T14:24:46.951Z,10.20
2019-04-29T14:27:24.984Z,10.12
2019-04-29T14:29:51.557Z,10.19
2019-04-29T14:32:33.246Z,10.32
2019-04-29T14:35:16.464Z,10.36
2019-04-29T14:37:55.009Z,10.36
2019-04-29T14:40:18.740Z,10.32
2019-04-29T14:43:03.064Z,10.36
2019-04-29T14:45:58.540Z,10.37
2019-04-29T14:48:43.118Z,10.35
2019-04-29T14:51:13.460Z,10.50
2019-04-29T14:53:55.787Z,10.51
2019-04-29T14:56:16.034Z,10.59
2019-04-29T14:58:48.077Z,10.68
2019-04-29T15:01:33.876Z,10.60
2019-04-29T15:04:18.485Z,10.80
2019-04-29T15:06:43.552Z,10.78
2019-04-29T15:09:20.040Z,10.88
2019-04-29T15:11:59.320Z,10.86
2019-04-29T15:14:40.986Z,10.87
2019-04-29T15:17:23.866Z,11.04
2019-04-29T15:20:18.288Z,11.18
2019-04-29T15:22:50.789Z,11.17
2019-04-29T15:25:23.732Z,11.25
2019-04-29T15:27:54.790Z,11.36
2019-04-29T15:30:31.719Z,11.29
2019-04-29T15:33:05.098Z,10.80
2019-04-29T15:35:35.642Z,11.46
2019-04-29T15:38:05.920Z,11.40
2019-04-29T15:40:42.820Z,11.51
2019-04-29T15:43:09.385Z,11.54
2019-04-29T15:45:41.187Z,11.50
2019-04-29T15:48:11.471Z,11.53
2019-04-29T15:50:42.521Z,11.67
2019-04-29T15:53:12.815Z,11.73
2019-04-29T15:55:43.327Z,11.61
2019-04-29T15:58:15.428Z,11.40
2019-04-29T16:00:46.195Z,11.61
2019-04-29T16:03:18.307Z,11.59
2019-04-29T16:06:21.829Z,11.58
2019-04-29T16:09:11.089Z,11.53
2019-04-29T16:12:16.529Z,11.44
2019-04-29T16:14:49.195Z,10.81
2019-04-29T16:17:20.755Z,11.43
2019-04-29T16:19:52.111Z,11.44
2019-04-29T16:22:22.681Z,11.44
2019-04-29T16:24:59.191Z,11.35
2019-04-29T16:27:25.361Z,11.43
2019-04-29T16:29:58.678Z,11.48
2019-04-29T16:32:37.928Z,11.43
2019-04-29T16:35:08.564Z,10.93
2019-04-29T16:37:39.086Z,11.54
2019-04-29T16:40:09.754Z,11.60
2019-04-29T16:42:58.364Z,11.58
2019-04-29T16:45:55.400Z,11.69
2019-04-29T16:48:27.334Z,11.69
2019-04-29T16:50:57.515Z,11.69
2019-04-29T16:53:28.049Z,11.82
2019-04-29T16:56:01.113Z,11.74
2019-04-29T16:58:31.353Z,11.82
2019-04-29T17:01:02.099Z,11.81
2019-04-29T17:03:32.724Z,11.80
2019-04-29T17:06:03.764Z,11.76
2019-04-29T17:09:02.953Z,11.77
2019-04-29T17:11:27.745Z,11.71
2019-04-29T17:14:03.545Z,11.59
2019-04-29T17:16:32.424Z,11.56
2019-04-29T17:19:19.083Z,11.59
2019-04-29T17:21:50.401Z,11.62
2019-04-29T17:24:20.409Z,11.52
2019-04-29T17:27:01.426Z,11.55
2019-04-29T17:29:49.659Z,11.66
2019-04-29T17:32:44.649Z,11.64
2019-04-29T17:35:21.541Z,11.56
2019-04-29T17:37:50.130Z,11.71
2019-04-29T17:40:21.386Z,11.75
2019-04-29T17:43:00.835Z,11.66
2019-04-29T17:45:39.824Z,11.14
2019-04-29T17:48:23.186Z,11.70
2019-04-29T17:51:00.169Z,11.69
2019-04-29T17:53:45.933Z,11.62
2019-04-29T17:56:26.992Z,11.69
2019-04-29T17:59:02.882Z,11.72
2019-04-29T18:01:51.172Z,11.73
2019-04-29T18:04:49.667Z,11.64
2019-04-29T18:07:35.128Z,11.54
2019-04-29T18:10:29.475Z,11.50
2019-04-29T18:13:04.249Z,11.59
2019-04-29T18:15:51.714Z,11.50
2019-04-29T18:18:17.007Z,11.42
2019-04-29T18:21:19.478Z,11.36
2019-04-29T18:24:05.044Z,11.49
2019-04-29T18:26:44.344Z,11.40
2019-04-29T18:29:16.198Z,11.40
2019-04-29T18:31:47.817Z,11.39
2019-04-29T18:34:18.423Z,11.47
2019-04-29T18:36:48.693Z,11.49
2019-04-29T18:39:24.987Z,11.48
2019-04-29T18:41:58.739Z,11.54
2019-04-29T18:44:27.915Z,11.52
2019-04-29T18:46:57.967Z,11.58
2019-04-29T18:49:28.018Z,11.63
2019-04-29T18:52:02.159Z,11.69
2019-04-29T18:54:31.582Z,11.71
2019-04-29T18:57:01.770Z,11.68
2019-04-29T18:59:34.470Z,11.73
2019-04-29T19:02:09.329Z,11.74
2019-04-29T19:05:05.135Z,11.73
2019-04-29T19:07:37.216Z,11.64
2019-04-29T19:10:14.151Z,11.61
2019-04-29T19:12:40.467Z,11.49
2019-04-29T19:15:11.991Z,11.44
2019-04-29T19:17:42.253Z,11.37
2019-04-29T19:20:18.340Z,11.34
2019-04-29T19:22:47.286Z,11.38
2019-04-29T19:25:17.647Z,11.45
2019-04-29T19:27:47.744Z,11.55
2019-04-29T19:30:21.018Z,11.56
2019-04-29T19:32:53.949Z,11.52
2019-04-29T19:35:22.447Z,11.57
2019-04-29T19:37:52.703Z,11.59
2019-04-29T19:40:23.333Z,11.65
2019-04-29T19:42:55.908Z,11.67
2019-04-29T19:47:59.604Z,11.63
2019-04-29T19:50:29.716Z,11.54
2019-04-29T19:53:00.725Z,11.60
2019-04-29T19:55:33.292Z,11.56
2019-04-29T19:58:06.588Z,11.31
2019-04-29T20:00:38.362Z,11.58
2019-04-29T20:03:20.565Z,11.53
2019-04-29T20:05:46.457Z,11.51
2019-04-29T20:08:37.439Z,11.49
2019-04-29T20:10:51.947Z,11.51
2019-04-29T20:13:20.286Z,11.46
2019-04-29T20:16:12.858Z,11.42
2019-04-29T20:19:02.231Z,11.44
2019-04-29T20:21:35.956Z,11.31
2019-04-29T20:24:09.452Z,11.37
2019-04-29T20:26:43.769Z,11.34
2019-04-29T20:29:12.339Z,11.36
2019-04-29T20:31:48.305Z,11.31
2019-04-29T20:34:20.320Z,11.29
2019-04-29T20:36:46.550Z,11.16
2019-04-29T20:39:23.051Z,11.07
2019-04-29T20:41:49.243Z,11.01
2019-04-29T20:44:19.640Z,11.05
2019-04-29T20:47:12.865Z,11.13
2019-04-29T20:49:26.243Z,11.13
2019-04-29T20:52:05.492Z,11.16
2019-04-29T20:54:37.324Z,11.10
2019-04-29T20:57:17.636Z,11.07
2019-04-29T20:59:42.108Z,11.04
2019-04-29T21:02:13.049Z,11.01
2019-04-29T21:04:46.278Z,10.93
2019-04-29T21:07:18.395Z,10.89
2019-04-29T21:09:48.040Z,10.93
2019-04-29T21:12:40.363Z,11.03
2019-04-29T21:15:16.498Z,11.10
2019-04-29T21:17:46.681Z,11.09
2019-04-29T21:20:16.829Z,11.10
2019-04-29T21:22:46.857Z,11.08
2019-04-29T21:25:17.036Z,11.08
2019-04-29T21:27:48.569Z,11.06
2019-04-29T21:30:20.096Z,11.13
2019-04-29T21:32:50.825Z,11.22
2019-04-29T21:35:35.336Z,11.25
2019-04-29T21:38:23.479Z,11.23
2019-04-29T21:40:58.873Z,11.34
2019-04-29T21:43:35.455Z,11.41
2019-04-29T21:46:05.788Z,11.39
2019-04-29T21:48:37.436Z,11.37
2019-04-29T21:51:11.233Z,11.25
2019-04-29T21:53:40.344Z,11.17
2019-04-29T21:56:09.457Z,11.09
2019-04-29T21:58:39.990Z,11.04
2019-04-29T22:01:10.598Z,10.90
2019-04-29T22:03:41.147Z,10.84
2019-04-29T22:06:16.230Z,10.80
2019-04-29T22:08:48.176Z,10.72
2019-04-29T22:11:18.900Z,10.71
2019-04-29T22:13:49.709Z,10.09
2019-04-29T22:16:19.953Z,10.61
2019-04-29T22:18:51.983Z,10.55
2019-04-29T22:21:23.346Z,10.51
2019-04-29T22:23:55.256Z,10.53
2019-04-29T22:26:26.806Z,10.46
2019-04-29T22:29:01.814Z,10.40
2019-04-29T22:31:33.818Z,10.37
2019-04-29T22:34:02.651Z,10.33
2019-04-29T22:36:33.281Z,10.29
2019-04-29T22:39:06.158Z,10.25
2019-04-29T22:41:58.280Z,10.21
2019-04-29T22:44:28.779Z,10.20
2019-04-29T22:46:58.853Z,10.13
2019-04-29T22:49:29.394Z,10.11
2019-04-29T22:51:59.510Z,10.06
2019-04-29T22:54:29.551Z,9.39
2019-04-29T22:56:59.748Z,9.97
2019-04-29T22:59:29.714Z,9.95
2019-04-29T23:02:00.034Z,9.93
2019-04-29T23:04:30.100Z,9.89
2019-04-29T23:07:00.039Z,9.87
2019-04-29T23:09:30.053Z,9.84
2019-04-29T23:12:00.466Z,9.80
2019-04-29T23:14:30.393Z,9.77
2019-04-29T23:17:00.702Z,9.76
2019-04-29T23:19:30.806Z,9.69
2019-04-29T23:22:22.107Z,9.69
2019-04-29T23:25:08.125Z,9.61
2019-04-29T23:27:38.193Z,9.52
2019-04-29T23:30:13.641Z,9.47
2019-04-29T23:32:44.275Z,9.42
2019-04-29T23:35:14.919Z,9.36
2019-04-29T23:37:45.736Z,9.22
2019-04-29T23:40:16.096Z,9.17
2019-04-29T23:42:47.949Z,9.17
2019-04-29T23:45:20.931Z,9.15
2019-04-29T23:47:50.462Z,9.16
2019-04-29T23:50:20.646Z,9.16
2019-04-29T23:52:51.962Z,9.14
2019-04-29T23:55:27.746Z,9.10
2019-04-29T23:58:09.962Z,9.08
